createdAt,value
2018-04-17T00:00:35.518Z,160334.02
2018-04-17T00:03:03.101Z,160331.42
2018-04-17T00:05:30.657Z,160336.66
2018-04-17T00:07:58.239Z,160383.00
2018-04-17T00:10:25.822Z,160386.25
2018-04-17T00:12:53.646Z,160401.89
2018-04-17T00:15:21.254Z,160431.91
2018-04-17T00:17:48.939Z,160446.25
2018-04-17T00:20:16.698Z,160470.38
2018-04-17T00:22:44.271Z,160472.33
2018-04-17T00:25:11.821Z,160471.69
2018-04-17T00:27:39.622Z,160523.19
2018-04-17T00:30:07.169Z,160504.95
2018-04-17T00:32:34.726Z,160481.47
2018-04-17T00:35:02.439Z,160463.84
2018-04-17T00:37:30.004Z,160450.16
2018-04-17T00:39:57.558Z,160446.91
2018-04-17T00:42:25.340Z,160456.69
2018-04-17T00:44:53.321Z,160456.69
2018-04-17T00:47:20.867Z,160431.91
2018-04-17T00:49:48.407Z,160413.62
2018-04-17T00:52:15.974Z,160418.83
2018-04-17T00:54:43.550Z,160370.58
2018-04-17T00:57:11.123Z,160360.13
2018-04-17T00:59:38.764Z,160341.20
2018-04-17T01:02:06.536Z,160333.36
2018-04-17T01:04:34.201Z,160320.97
2018-04-17T01:07:01.747Z,160300.80
2018-04-17T01:09:29.502Z,160283.17
2018-04-17T01:11:57.062Z,160281.88
2018-04-17T01:14:24.613Z,160275.39
2018-04-17T01:16:52.416Z,160266.89
2018-04-17T01:19:20.041Z,160276.03
2018-04-17T01:21:47.591Z,160296.86
2018-04-17T01:24:15.200Z,160328.17
2018-04-17T01:26:43.210Z,160358.14
2018-04-17T01:29:10.971Z,160410.38
2018-04-17T01:31:38.551Z,160435.81
2018-04-17T01:34:06.131Z,160448.84
2018-04-17T01:36:33.692Z,160444.95
2018-04-17T01:39:01.337Z,160437.75
2018-04-17T01:41:29.130Z,160440.36
2018-04-17T01:43:57.039Z,160469.08
2018-04-17T01:46:24.597Z,160524.50
2018-04-17T01:48:52.144Z,160506.25
2018-04-17T01:51:19.947Z,160441.66
2018-04-17T01:53:47.496Z,160399.30
2018-04-17T01:56:15.092Z,160375.17
2018-04-17T01:58:42.822Z,160361.44
2018-04-17T02:01:10.399Z,160334.72
2018-04-17T02:03:37.974Z,160317.73
2018-04-17T02:06:05.518Z,160338.61
2018-04-17T02:08:33.112Z,160319.69
2018-04-17T02:11:00.844Z,160304.05
2018-04-17T02:13:28.401Z,160297.50
2018-04-17T02:15:57.111Z,160285.13
2018-04-17T02:18:24.673Z,160262.34
2018-04-17T02:20:52.232Z,160252.56
2018-04-17T02:23:19.808Z,160246.03
2018-04-17T02:25:47.392Z,160232.34
2018-04-17T02:28:14.958Z,160222.56
2018-04-17T02:30:42.635Z,160219.31
2018-04-17T02:33:10.213Z,160209.53
2018-04-17T02:35:38.011Z,160219.97
2018-04-17T02:38:05.564Z,160206.28
2018-04-17T02:40:33.231Z,160182.17
2018-04-17T02:43:01.124Z,160172.39
2018-04-17T02:45:28.685Z,160174.33
2018-04-17T02:47:56.294Z,160153.52
2018-04-17T02:50:23.859Z,160159.36
2018-04-17T02:52:51.397Z,160171.09
2018-04-17T02:55:19.008Z,160152.17
2018-04-17T02:57:46.568Z,160136.55
2018-04-17T03:00:14.128Z,160128.11
2018-04-17T03:02:41.694Z,160132.00
2018-04-17T03:05:09.236Z,160139.14
2018-04-17T03:07:36.784Z,160165.25
2018-04-17T03:10:04.423Z,160166.55
2018-04-17T03:12:32.226Z,160179.58
2018-04-17T03:15:00.337Z,160155.47
2018-04-17T03:17:28.135Z,160148.92
2018-04-17T03:19:55.820Z,160123.52
2018-04-17T03:22:23.520Z,160109.84
2018-04-17T03:24:51.430Z,160105.30
2018-04-17T03:27:19.201Z,160104.00
2018-04-17T03:29:46.774Z,160104.00
2018-04-17T03:32:14.311Z,160098.77
2018-04-17T03:34:42.117Z,160090.28
2018-04-17T03:37:09.897Z,160084.44
2018-04-17T03:39:37.476Z,160078.55
2018-04-17T03:42:05.018Z,160082.50
2018-04-17T03:44:32.922Z,160078.55
2018-04-17T03:47:00.475Z,160107.91
2018-04-17T03:49:28.045Z,160077.25
2018-04-17T03:51:55.634Z,160063.58
2018-04-17T03:54:23.181Z,160061.62
2018-04-17T03:56:50.991Z,160057.09
2018-04-17T03:59:18.563Z,160051.84
2018-04-17T04:01:46.176Z,160058.39
2018-04-17T04:04:13.785Z,160075.95
2018-04-17T04:06:41.350Z,160139.78
2018-04-17T04:09:08.903Z,160161.31
2018-04-17T04:11:36.637Z,160130.70
2018-04-17T04:14:04.233Z,160158.06
2018-04-17T04:16:43.459Z,160185.42
2018-04-17T04:19:24.268Z,160180.88
2018-04-17T04:22:03.516Z,160149.56
2018-04-17T04:24:42.957Z,160141.78
2018-04-17T04:27:10.719Z,160137.84
2018-04-17T04:29:38.394Z,160150.87
2018-04-17T04:32:05.976Z,160151.53
2018-04-17T04:34:33.983Z,160167.84
2018-04-17T04:37:01.730Z,160152.17
2018-04-17T04:39:29.403Z,160148.92
2018-04-17T04:41:57.240Z,160176.98
2018-04-17T04:44:24.792Z,160195.20
2018-04-17T04:46:52.534Z,160197.80
2018-04-17T04:49:20.156Z,160213.47
2018-04-17T04:51:47.717Z,160233.00
2018-04-17T04:54:15.261Z,160253.88
2018-04-17T04:56:43.063Z,160270.80
2018-04-17T04:59:10.709Z,160287.13
2018-04-17T05:01:38.277Z,160287.13
2018-04-17T05:04:05.850Z,160309.23
2018-04-17T05:06:33.632Z,160332.06
2018-04-17T05:09:01.220Z,160347.75
2018-04-17T05:11:28.939Z,160384.95
2018-04-17T05:13:56.892Z,160430.56
2018-04-17T05:16:24.643Z,160470.38
2018-04-17T05:18:52.181Z,160490.56
2018-04-17T05:21:19.855Z,160516.00
2018-04-17T05:23:47.448Z,160556.47
2018-04-17T05:26:15.346Z,160601.45
2018-04-17T05:28:42.896Z,160646.48
2018-04-17T05:31:10.697Z,160694.78
2018-04-17T05:33:38.380Z,160743.72
2018-04-17T05:36:06.000Z,160800.52
2018-04-17T05:38:33.906Z,160810.97
2018-04-17T05:41:01.466Z,160891.25
2018-04-17T05:43:29.048Z,160953.28
2018-04-17T05:45:56.631Z,161023.86
2018-04-17T05:48:24.178Z,161091.17
2018-04-17T05:50:51.863Z,161174.16
2018-04-17T05:53:19.674Z,161236.22
2018-04-17T05:55:47.258Z,161351.25
2018-04-17T05:58:14.845Z,161438.19
2018-04-17T06:00:42.386Z,161519.98
2018-04-17T06:03:10.096Z,161599.16
2018-04-17T06:05:37.647Z,161685.50
2018-04-17T06:08:05.289Z,161811.12
2018-04-17T06:10:33.095Z,162004.31
2018-04-17T06:13:00.648Z,162234.22
2018-04-17T06:15:28.240Z,162356.16
2018-04-17T06:17:55.833Z,162474.09
2018-04-17T06:20:23.553Z,162552.81
2018-04-17T06:22:51.371Z,162609.88
2018-04-17T06:25:18.914Z,162512.12
2018-04-17T06:27:46.635Z,162705.63
2018-04-17T06:30:14.297Z,162704.31
2018-04-17T06:32:41.868Z,162647.95
2018-04-17T06:35:09.452Z,162642.67
2018-04-17T06:37:37.051Z,162689.25
2018-04-17T06:40:04.633Z,162853.23
2018-04-17T06:42:32.207Z,162706.94
2018-04-17T06:44:59.758Z,162586.97
2018-04-17T06:47:27.416Z,162576.47
2018-04-17T06:49:55.053Z,162417.75
2018-04-17T06:52:22.603Z,162453.16
2018-04-17T06:54:50.166Z,162351.53
2018-04-17T06:57:18.012Z,162315.48
2018-04-17T06:59:45.583Z,162316.14
2018-04-17T07:02:13.363Z,162367.30
2018-04-17T07:04:41.031Z,162399.38
2018-04-17T07:07:08.729Z,162413.78
2018-04-17T07:09:36.363Z,162434.78
2018-04-17T07:12:03.930Z,162406.61
2018-04-17T07:14:31.658Z,162449.84
2018-04-17T07:16:59.229Z,162517.39
2018-04-17T07:19:26.837Z,162546.22
2018-04-17T07:21:54.387Z,162529.84
2018-04-17T07:24:22.136Z,162707.59
2018-04-17T07:26:49.727Z,162500.97
2018-04-17T07:29:17.276Z,162600.72
2018-04-17T07:31:44.845Z,162348.92
2018-04-17T07:34:12.416Z,162498.36
2018-04-17T07:36:40.158Z,162508.20
2018-04-17T07:39:07.985Z,162419.06
2018-04-17T07:41:35.553Z,162598.72
2018-04-17T07:44:03.285Z,162510.16
2018-04-17T07:46:30.890Z,162493.78
2018-04-17T07:49:05.141Z,162548.19
2018-04-17T07:51:32.748Z,162503.63
2018-04-17T07:54:00.590Z,162546.87
2018-04-17T07:56:28.153Z,162607.25
2018-04-17T07:58:55.723Z,162613.19
2018-04-17T08:01:23.829Z,162626.95
2018-04-17T08:03:51.599Z,162727.94
2018-04-17T08:06:19.144Z,162659.70
2018-04-17T08:08:46.711Z,162634.78
2018-04-17T08:11:14.322Z,162738.44
2018-04-17T08:13:41.863Z,162793.52
2018-04-17T08:16:09.407Z,162633.47
2018-04-17T08:18:37.008Z,162726.63
2018-04-17T08:21:04.596Z,162849.31
2018-04-17T08:23:32.169Z,162753.52
2018-04-17T08:25:59.733Z,162805.33
2018-04-17T08:28:27.316Z,162852.58
2018-04-17T08:30:54.873Z,162813.22
2018-04-17T08:33:22.685Z,162867.05
2018-04-17T08:35:50.222Z,162808.66
2018-04-17T08:38:18.036Z,162855.19
2018-04-17T08:40:45.616Z,162912.34
2018-04-17T08:43:13.280Z,162891.98
2018-04-17T08:45:40.888Z,162999.62
2018-04-17T08:48:08.447Z,163011.44
2018-04-17T08:50:36.061Z,163020.00
2018-04-17T08:53:03.624Z,162997.02
2018-04-17T08:55:31.179Z,163117.16
2018-04-17T08:57:58.902Z,163117.16
2018-04-17T09:00:26.704Z,163171.69
2018-04-17T09:02:54.396Z,163128.31
2018-04-17T09:05:21.947Z,163130.28
2018-04-17T09:07:49.498Z,163163.19
2018-04-17T09:10:17.314Z,163166.45
2018-04-17T09:12:44.993Z,163197.98
2018-04-17T09:15:12.770Z,163241.30
2018-04-17T09:17:40.548Z,163186.83
2018-04-17T09:20:08.179Z,163279.39
2018-04-17T09:22:35.731Z,163460.11
2018-04-17T09:25:03.288Z,163247.25
2018-04-17T09:27:30.891Z,163378.56
2018-04-17T09:29:58.446Z,163475.22
2018-04-17T09:32:26.189Z,163423.31
2018-04-17T09:34:53.966Z,163506.78
2018-04-17T09:37:21.535Z,163503.45
2018-04-17T09:39:49.317Z,163547.50
2018-04-17T09:42:17.044Z,163393.72
2018-04-17T09:44:45.009Z,163412.14
2018-04-17T09:47:12.563Z,163368.06
2018-04-17T09:49:40.113Z,163450.25
2018-04-17T09:52:07.900Z,163370.06
2018-04-17T09:54:35.579Z,163395.69
2018-04-17T09:57:03.559Z,163485.08
2018-04-17T09:59:31.292Z,163182.19
2018-04-17T10:01:58.843Z,163311.59
2018-04-17T10:04:26.424Z,163452.20
2018-04-17T10:06:54.159Z,163443.70
2018-04-17T10:09:21.882Z,163480.50
2018-04-17T10:11:49.454Z,163383.86
2018-04-17T10:14:16.994Z,163419.39
2018-04-17T10:16:45.100Z,163370.06
2018-04-17T10:19:12.711Z,163328.66
2018-04-17T10:21:40.271Z,163367.41
2018-04-17T10:24:07.847Z,163485.73
2018-04-17T10:26:35.405Z,163471.94
2018-04-17T10:29:03.114Z,163414.77
2018-04-17T10:31:30.691Z,163535.02
2018-04-17T10:33:58.388Z,163439.06
2018-04-17T10:36:25.959Z,163477.17
2018-04-17T10:38:53.542Z,163535.67
2018-04-17T10:41:21.127Z,163620.45
2018-04-17T10:43:49.119Z,163598.09
2018-04-17T10:46:16.658Z,163536.33
2018-04-17T10:48:44.311Z,163414.11
2018-04-17T10:51:11.872Z,163360.86
2018-04-17T10:53:39.693Z,163511.34
2018-04-17T10:56:07.505Z,163504.81
2018-04-17T10:58:35.058Z,163604.05
2018-04-17T11:01:02.613Z,163439.06
2018-04-17T11:03:30.181Z,163488.34
2018-04-17T11:05:57.750Z,163457.50
2018-04-17T11:08:25.409Z,163570.50
2018-04-17T11:10:52.976Z,163561.95
2018-04-17T11:13:20.821Z,163508.73
2018-04-17T11:15:48.370Z,163547.50
2018-04-17T11:18:15.943Z,163403.59
2018-04-17T11:20:43.680Z,163513.31
2018-04-17T11:23:11.267Z,163606.00
2018-04-17T11:25:38.825Z,163686.88
2018-04-17T11:28:06.413Z,163629.67
2018-04-17T11:30:33.999Z,163552.08
2018-04-17T11:33:01.563Z,163644.12
2018-04-17T11:35:29.148Z,163520.56
2018-04-17T11:37:56.897Z,163561.95
2018-04-17T11:40:24.706Z,163635.56
2018-04-17T11:42:52.275Z,163719.77
2018-04-17T11:45:19.874Z,163695.44
2018-04-17T11:47:47.447Z,163692.81
2018-04-17T11:50:15.013Z,163682.30
2018-04-17T11:52:42.781Z,163584.31
2018-04-17T11:55:10.359Z,163624.39
2018-04-17T11:57:37.921Z,163676.41
2018-04-17T12:00:05.508Z,163727.67
2018-04-17T12:02:33.278Z,163738.20
2018-04-17T12:05:00.986Z,163744.75
2018-04-17T12:07:28.562Z,163715.19
2018-04-17T12:09:56.120Z,163694.78
2018-04-17T12:12:23.695Z,163716.50
2018-04-17T12:14:51.280Z,163748.72
2018-04-17T12:17:19.021Z,163850.62
2018-04-17T12:19:46.668Z,163894.06
2018-04-17T12:22:14.224Z,163832.19
2018-04-17T12:24:41.797Z,163834.20
2018-04-17T12:27:09.412Z,163856.53
2018-04-17T12:29:37.303Z,163926.31
2018-04-17T12:32:04.858Z,163831.55
2018-04-17T12:34:32.461Z,163879.55
2018-04-17T12:37:00.034Z,163850.62
2018-04-17T12:39:27.652Z,163907.92
2018-04-17T12:41:55.212Z,163944.75
2018-04-17T12:44:22.772Z,163821.66
2018-04-17T12:46:51.027Z,163937.50
2018-04-17T12:49:18.575Z,164024.97
2018-04-17T12:51:46.324Z,164024.97
2018-04-17T12:54:14.159Z,163992.06
2018-04-17T12:56:41.707Z,163994.73
2018-04-17T12:59:09.473Z,164002.59
2018-04-17T13:01:37.038Z,163972.36
2018-04-17T13:04:04.866Z,163798.03
2018-04-17T13:06:32.413Z,163743.44
2018-04-17T13:08:59.979Z,163773.72
2018-04-17T13:11:27.741Z,163879.55
2018-04-17T13:13:55.290Z,163861.81
2018-04-17T13:16:22.877Z,163973.02
2018-04-17T13:18:50.710Z,163994.73
2018-04-17T13:21:18.287Z,163938.16
2018-04-17T13:23:46.265Z,163980.87
2018-04-17T13:26:13.912Z,163994.09
2018-04-17T13:28:41.465Z,163974.33
2018-04-17T13:31:09.066Z,164120.44
2018-04-17T13:33:36.650Z,164069.73
2018-04-17T13:36:04.205Z,163931.55
2018-04-17T13:38:32.118Z,164054.61
2018-04-17T13:40:59.686Z,164076.28
2018-04-17T13:43:27.469Z,164034.20
2018-04-17T13:45:56.437Z,164184.92
2018-04-17T13:48:24.004Z,164121.75
2018-04-17T13:50:51.565Z,164159.25
2018-04-17T13:53:19.913Z,164268.52
2018-04-17T13:55:47.457Z,164322.53
2018-04-17T13:58:15.022Z,164318.53
2018-04-17T14:00:42.594Z,164262.56
2018-04-17T14:03:10.411Z,164309.97
2018-04-17T14:05:38.291Z,164222.44
2018-04-17T14:08:05.964Z,164325.19
2018-04-17T14:10:33.521Z,164344.91
2018-04-17T14:13:01.503Z,164276.44
2018-04-17T14:15:29.060Z,164252.08
2018-04-17T14:17:56.869Z,164286.27
2018-04-17T14:20:24.670Z,164261.25
2018-04-17T14:22:52.228Z,164106.63
2018-04-17T14:25:19.781Z,164300.13
2018-04-17T14:27:47.513Z,164362.72
2018-04-17T14:30:15.072Z,164383.09
2018-04-17T14:32:42.618Z,164275.06
2018-04-17T14:35:10.189Z,164297.45
2018-04-17T14:37:37.758Z,164347.53
2018-04-17T14:40:05.311Z,164361.41
2018-04-17T14:42:33.463Z,164419.31
2018-04-17T14:45:01.209Z,164273.09
2018-04-17T14:47:28.779Z,164176.34
2018-04-17T14:49:56.661Z,164348.19
2018-04-17T14:52:24.213Z,164382.44
2018-04-17T14:54:51.760Z,164296.80
2018-04-17T14:57:19.378Z,164271.14
2018-04-17T14:59:46.925Z,164298.12
2018-04-17T15:02:14.491Z,164311.28
2018-04-17T15:04:42.096Z,164222.44
2018-04-17T15:07:09.653Z,164275.06
2018-04-17T15:09:37.449Z,164317.22
2018-04-17T15:12:05.009Z,164113.19
2018-04-17T15:14:33.044Z,164049.31
2018-04-17T15:17:00.599Z,164067.11
2018-04-17T15:19:28.355Z,164254.70
2018-04-17T15:21:55.956Z,164333.06
2018-04-17T15:24:23.724Z,164275.06
2018-04-17T15:26:51.358Z,164275.06
2018-04-17T15:29:19.162Z,164275.78
2018-04-17T15:31:46.732Z,164306.03
2018-04-17T15:34:14.922Z,164219.16
2018-04-17T15:36:42.701Z,164296.16
2018-04-17T15:39:10.261Z,164353.48
2018-04-17T15:41:37.861Z,164240.23
2018-04-17T15:44:05.626Z,164331.09
2018-04-17T15:46:33.176Z,164331.09
2018-04-17T15:49:00.757Z,164190.22
2018-04-17T15:51:28.329Z,164255.36
2018-04-17T15:53:55.916Z,164225.70
2018-04-17T15:56:23.461Z,164003.91
2018-04-17T15:58:51.390Z,164092.77
2018-04-17T16:01:19.002Z,164038.13
2018-04-17T16:03:46.583Z,164033.55
2018-04-17T16:06:14.194Z,164023.02
2018-04-17T16:08:41.757Z,164042.06
2018-04-17T16:11:09.302Z,164159.91
2018-04-17T16:13:37.040Z,164094.73
2018-04-17T16:16:04.621Z,164068.42
2018-04-17T16:18:32.172Z,164065.09
2018-04-17T16:20:59.770Z,164083.55
2018-04-17T16:23:27.327Z,164068.42
2018-04-17T16:25:54.893Z,164010.52
2018-04-17T16:28:22.730Z,164063.13
2018-04-17T16:30:50.299Z,163980.22
2018-04-17T16:33:17.853Z,163967.72
2018-04-17T16:35:45.687Z,164022.36
2018-04-17T16:38:13.237Z,164007.23
2018-04-17T16:40:40.825Z,163971.06
2018-04-17T16:43:08.394Z,163887.52
2018-04-17T16:45:35.984Z,163895.42
2018-04-17T16:48:04.172Z,163904.59
2018-04-17T16:50:31.737Z,163925.00
2018-04-17T16:52:59.281Z,163861.16
2018-04-17T16:55:26.999Z,163966.42
2018-04-17T16:57:54.547Z,164017.06
2018-04-17T17:00:22.094Z,163925.00
2018-04-17T17:02:49.822Z,163888.81
2018-04-17T17:05:17.508Z,163911.84
2018-04-17T17:07:45.108Z,163836.83
2018-04-17T17:10:12.681Z,163834.20
2018-04-17T17:12:40.269Z,163834.20
2018-04-17T17:15:07.828Z,163829.58
2018-04-17T17:17:36.076Z,163854.56
2018-04-17T17:20:03.809Z,163861.81
2018-04-17T17:22:31.421Z,163830.88
2018-04-17T17:24:59.170Z,163786.86
2018-04-17T17:27:26.738Z,163757.89
2018-04-17T17:29:54.315Z,163780.25
2018-04-17T17:32:21.889Z,163780.25
2018-04-17T17:34:49.814Z,163766.45
2018-04-17T17:37:17.528Z,163749.38
2018-04-17T17:39:45.078Z,163731.59
2018-04-17T17:42:13.062Z,163689.55
2018-04-17T17:44:40.607Z,163684.27
2018-04-17T17:47:08.168Z,163663.27
2018-04-17T17:49:35.762Z,163638.23
2018-04-17T17:52:03.479Z,163607.97
2018-04-17T17:54:31.291Z,163614.56
2018-04-17T17:56:58.844Z,163591.56
2018-04-17T17:59:26.390Z,163525.80
2018-04-17T18:01:53.968Z,163482.47
2018-04-17T18:04:21.533Z,163468.02
2018-04-17T18:06:49.128Z,163417.38
2018-04-17T18:09:16.693Z,163386.47
2018-04-17T18:11:44.277Z,163400.97
2018-04-17T18:14:11.835Z,163383.20
2018-04-17T18:16:39.422Z,163306.31
2018-04-17T18:19:07.250Z,163230.14
2018-04-17T18:21:34.986Z,163176.97
2018-04-17T18:24:02.736Z,163140.19
2018-04-17T18:26:30.325Z,163090.25
2018-04-17T18:28:57.898Z,163046.25
2018-04-17T18:31:25.579Z,163016.06
2018-04-17T18:33:54.087Z,162976.00
2018-04-17T18:36:21.648Z,162941.25
2018-04-17T18:38:49.857Z,162911.03
2018-04-17T18:41:17.413Z,162900.53
2018-04-17T18:43:44.985Z,162871.69
2018-04-17T18:46:12.554Z,162844.73
2018-04-17T18:48:40.107Z,162823.72
2018-04-17T18:51:07.686Z,162811.27
2018-04-17T18:53:35.292Z,162789.59
2018-04-17T18:56:02.837Z,162766.63
2018-04-17T18:58:30.581Z,162773.22
2018-04-17T19:00:58.358Z,162786.34
2018-04-17T19:03:25.923Z,162739.09
2018-04-17T19:05:54.257Z,162728.59
2018-04-17T19:08:21.818Z,162720.05
2018-04-17T19:10:49.398Z,162726.63
2018-04-17T19:13:16.983Z,162703.67
2018-04-17T19:15:44.558Z,162696.44
2018-04-17T19:18:12.249Z,162686.63
2018-04-17T19:20:40.263Z,162664.33
2018-04-17T19:23:08.009Z,162743.02
2018-04-17T19:25:35.575Z,162673.53
2018-04-17T19:28:03.185Z,162628.91
2018-04-17T19:30:30.764Z,162615.80
2018-04-17T19:32:58.376Z,162605.30
2018-04-17T19:35:26.010Z,162608.56
2018-04-17T19:37:54.311Z,162547.53
2018-04-17T19:40:21.867Z,162508.86
2018-04-17T19:42:49.432Z,162502.98
2018-04-17T19:45:17.011Z,162473.45
2018-04-17T19:47:44.804Z,162451.16
2018-04-17T19:50:12.375Z,162427.55
2018-04-17T19:52:39.935Z,162432.83
2018-04-17T19:55:07.506Z,162431.52
2018-04-17T19:57:35.098Z,162409.22
2018-04-17T20:00:02.665Z,162367.95
2018-04-17T20:02:30.246Z,162349.56
2018-04-17T20:04:57.794Z,162316.14
2018-04-17T20:07:25.382Z,162295.20
2018-04-17T20:09:53.069Z,162293.91
2018-04-17T20:12:20.682Z,162308.31
2018-04-17T20:14:48.313Z,162291.25
2018-04-17T20:17:16.179Z,162303.03
2018-04-17T20:19:43.723Z,162323.37
2018-04-17T20:22:11.270Z,162313.53
2018-04-17T20:24:38.849Z,162300.42
2018-04-17T20:27:06.404Z,162343.69
2018-04-17T20:29:33.982Z,162348.92
2018-04-17T20:32:01.540Z,162324.67
2018-04-17T20:34:29.556Z,162333.86
2018-04-17T20:36:57.138Z,162347.63
2018-04-17T20:39:24.869Z,162352.84
2018-04-17T20:41:52.548Z,162346.97
2018-04-17T20:44:20.127Z,162327.28
2018-04-17T20:46:47.768Z,162301.73
2018-04-17T20:49:15.337Z,162288.63
2018-04-17T20:51:42.916Z,162293.91
2018-04-17T20:54:10.621Z,162299.78
2018-04-17T20:56:38.291Z,162299.12
2018-04-17T20:59:06.408Z,162299.78
2018-04-17T21:01:33.976Z,162273.58
2018-04-17T21:04:01.563Z,162240.14
2018-04-17T21:06:29.405Z,162232.22
2018-04-17T21:08:57.187Z,162196.22
2018-04-17T21:11:24.777Z,162172.64
2018-04-17T21:13:52.371Z,162152.97
2018-04-17T21:16:20.003Z,162168.67
2018-04-17T21:18:47.573Z,162197.53
2018-04-17T21:21:15.138Z,162173.94
2018-04-17T21:23:42.716Z,162107.11
2018-04-17T21:26:10.308Z,162067.17
2018-04-17T21:28:38.046Z,162051.47
2018-04-17T21:31:05.657Z,162034.41
2018-04-17T21:33:33.207Z,162021.97
2018-04-17T21:36:00.816Z,162021.97
2018-04-17T21:38:28.575Z,162019.36
2018-04-17T21:40:56.405Z,162006.27
2018-04-17T21:43:24.017Z,162021.31
2018-04-17T21:45:51.590Z,161978.13
2018-04-17T21:48:19.140Z,162083.53
2018-04-17T21:50:46.720Z,161976.81
2018-04-17T21:53:14.313Z,161972.86
2018-04-17T21:55:42.034Z,162006.27
2018-04-17T21:58:09.586Z,161930.33
2018-04-17T22:00:37.346Z,161901.50
2018-04-17T22:03:05.046Z,161896.28
2018-04-17T22:05:32.591Z,161879.92
2018-04-17T22:08:00.143Z,161843.22
2018-04-17T22:10:27.728Z,161810.48
2018-04-17T22:12:55.448Z,161784.97
2018-04-17T22:15:23.097Z,161786.27
2018-04-17T22:17:50.676Z,161775.78
2018-04-17T22:20:18.273Z,161756.14
2018-04-17T22:22:45.853Z,161754.83
2018-04-17T22:25:13.658Z,161769.92
2018-04-17T22:27:41.473Z,161731.92
2018-04-17T22:30:09.078Z,161709.72
2018-04-17T22:32:36.827Z,161695.94
2018-04-17T22:35:04.602Z,161695.94
2018-04-17T22:37:32.380Z,161707.06
2018-04-17T22:39:59.982Z,161686.81
2018-04-17T22:42:27.716Z,161685.50
2018-04-17T22:44:55.468Z,161671.72
2018-04-17T22:47:23.029Z,161649.52
2018-04-17T22:49:50.611Z,161645.56
2018-04-17T22:52:18.437Z,161622.66
2018-04-17T22:54:46.211Z,161596.50
2018-04-17T22:57:13.788Z,161601.77
2018-04-17T22:59:41.883Z,161598.45
2018-04-17T23:02:09.754Z,161595.20
2018-04-17T23:04:37.301Z,161586.03
2018-04-17T23:07:04.885Z,161578.22
2018-04-17T23:09:32.563Z,161565.78
2018-04-17T23:12:00.131Z,161578.86
2018-04-17T23:14:27.719Z,161571.00
2018-04-17T23:16:55.295Z,161543.53
2018-04-17T23:19:22.885Z,161555.97
2018-04-17T23:21:50.619Z,161533.72
2018-04-17T23:24:18.216Z,161527.20
2018-04-17T23:26:45.796Z,161518.03
2018-04-17T23:29:13.363Z,161511.47
2018-04-17T23:31:41.066Z,161490.58
2018-04-17T23:34:08.628Z,161495.14
2018-04-17T23:36:36.195Z,161484.02
2018-04-17T23:39:03.961Z,161491.89
2018-04-17T23:41:31.520Z,161477.50
2018-04-17T23:43:59.157Z,161474.84
2018-04-17T23:46:26.843Z,161450.61
2018-04-17T23:48:54.395Z,161442.14
2018-04-17T23:51:21.975Z,161447.36
2018-04-17T23:53:49.713Z,161454.56
2018-04-17T23:56:17.322Z,161455.22
2018-04-17T23:58:44.874Z,161446.70
